Time;durP1;ratioP1;P1;durP2;ratioP2;P2;SDS_P1;SDS_P2;PMS_P1;PMS_P2;Temp;Humidity;BMP_temperature;BMP_pressure;BME280_temperature;BME280_humidity;BME280_pressure;Samples;Min_cycle;Max_cycle;Signal;HPM_P1;HPM_P2
2021/09/18 00:00:26;;;;;;;6.00;2.30;;;13.20;99.90;;;;;;4893268;29;20067;-78
2021/09/18 00:02:52;;;;;;;5.38;2.28;;;13.30;99.90;;;;;;4877884;29;20036;-78
2021/09/18 00:05:18;;;;;;;4.88;2.20;;;13.30;99.90;;;;;;4883901;29;20059;-80
2021/09/18 00:07:43;;;;;;;3.83;2.20;;;13.40;99.90;;;;;;4898585;29;20059;-79
2021/09/18 00:10:09;;;;;;;9.45;2.30;;;13.40;99.90;;;;;;4884717;29;20111;-80
2021/09/18 00:12:35;;;;;;;7.47;2.47;;;13.40;99.90;;;;;;4897138;29;20043;-80
2021/09/18 00:15:02;;;;;;;6.20;2.30;;;13.40;99.90;;;;;;4893436;29;20477;-78
2021/09/18 00:17:28;;;;;;;3.90;2.20;;;13.40;99.90;;;;;;4883407;29;20566;-79
2021/09/18 00:19:54;;;;;;;4.40;2.40;;;13.40;99.90;;;;;;4878390;29;20067;-79
2021/09/18 00:22:20;;;;;;;6.28;2.20;;;13.40;99.90;;;;;;4896141;29;20082;-79
2021/09/18 00:24:45;;;;;;;5.88;2.60;;;13.30;99.90;;;;;;4896070;29;20059;-80
2021/09/18 00:27:11;;;;;;;5.40;2.58;;;13.30;99.90;;;;;;4893337;29;20044;-79
2021/09/18 00:29:37;;;;;;;5.57;2.30;;;13.30;99.90;;;;;;4893257;29;20048;-80
2021/09/18 00:32:03;;;;;;;6.45;2.38;;;13.20;99.90;;;;;;4897048;29;20039;-79
2021/09/18 00:34:29;;;;;;;4.93;2.67;;;13.20;99.90;;;;;;4894270;29;20135;-78
2021/09/18 00:36:55;;;;;;;5.93;2.90;;;13.20;99.90;;;;;;4892344;29;20158;-79
2021/09/18 00:39:20;;;;;;;3.70;2.28;;;13.30;99.90;;;;;;4894876;29;20048;-76
2021/09/18 00:41:46;;;;;;;7.75;2.80;;;13.30;99.90;;;;;;4900350;29;20043;-78
2021/09/18 00:44:17;;;;;;;4.38;2.58;;;13.30;99.90;;;;;;4898950;29;20119;-79
2021/09/18 00:46:50;;;;;;;5.03;2.72;;;13.20;99.90;;;;;;4887876;29;20051;-78
2021/09/18 00:49:17;;;;;;;8.13;2.75;;;13.30;99.90;;;;;;4894750;29;20036;-78
2021/09/18 00:51:42;;;;;;;5.18;2.60;;;13.30;99.90;;;;;;4897320;29;20123;-78
2021/09/18 00:54:10;;;;;;;4.78;2.55;;;13.30;99.90;;;;;;4892474;29;20441;-79
2021/09/18 00:56:36;;;;;;;4.78;2.22;;;13.30;99.90;;;;;;4896900;29;20105;-77
2021/09/18 00:59:02;;;;;;;5.80;2.20;;;13.30;99.90;;;;;;4873094;29;20040;-78
2021/09/18 01:01:27;;;;;;;7.18;2.33;;;13.20;99.90;;;;;;4892762;29;20032;-78
2021/09/18 01:03:53;;;;;;;4.85;2.10;;;13.20;99.90;;;;;;4875008;29;20060;-78
2021/09/18 01:06:19;;;;;;;4.43;2.17;;;13.20;99.90;;;;;;4878169;29;20161;-79
2021/09/18 01:08:51;;;;;;;4.10;2.53;;;13.10;99.90;;;;;;4880590;29;20068;-78
2021/09/18 01:11:17;;;;;;;4.38;2.10;;;13.10;99.90;;;;;;4894965;29;20056;-78
2021/09/18 01:13:43;;;;;;;5.78;2.40;;;13.00;99.90;;;;;;4905081;29;20075;-78
2021/09/18 01:16:08;;;;;;;5.63;2.20;;;12.90;99.90;;;;;;4894890;29;20094;-76
2021/09/18 01:18:34;;;;;;;5.65;1.80;;;12.90;99.90;;;;;;4896759;29;20503;-78
2021/09/18 01:21:00;;;;;;;5.40;2.30;;;12.90;99.90;;;;;;4893511;29;21072;-78
2021/09/18 01:23:26;;;;;;;6.13;2.05;;;12.80;99.90;;;;;;4896788;29;20099;-79
2021/09/18 01:25:53;;;;;;;5.50;1.90;;;12.80;99.90;;;;;;4890911;29;20041;-78
2021/09/18 01:28:19;;;;;;;5.78;2.10;;;12.80;99.90;;;;;;4895952;29;20047;-79
2021/09/18 01:30:45;;;;;;;4.47;2.05;;;12.80;99.90;;;;;;4895546;29;20044;-79
2021/09/18 01:33:11;;;;;;;4.60;2.17;;;12.80;99.90;;;;;;4893951;29;20071;-77
2021/09/18 01:35:37;;;;;;;2.88;1.98;;;12.70;99.90;;;;;;4904636;29;20044;-78
2021/09/18 01:38:04;;;;;;;6.63;2.30;;;12.70;99.90;;;;;;4894957;29;20461;-79
2021/09/18 01:40:33;;;;;;;5.60;2.58;;;12.70;99.90;;;;;;4909154;29;20148;-76
2021/09/18 01:42:59;;;;;;;4.47;2.83;;;12.70;99.90;;;;;;4896548;29;20047;-78
2021/09/18 01:45:27;;;;;;;5.43;2.42;;;12.70;99.90;;;;;;4891756;29;20035;-79
2021/09/18 01:47:56;;;;;;;5.30;2.78;;;12.70;99.90;;;;;;4880736;29;20032;-78
2021/09/18 01:50:23;;;;;;;4.13;2.40;;;12.70;99.90;;;;;;4894882;29;20048;-80
2021/09/18 01:52:49;;;;;;;7.22;2.42;;;12.70;99.90;;;;;;4897416;29;20418;-80
2021/09/18 01:55:16;;;;;;;5.75;2.30;;;12.70;99.90;;;;;;4911467;29;20044;-78
2021/09/18 01:57:47;;;;;;;8.05;2.75;;;12.70;99.90;;;;;;4890223;29;20404;-78
2021/09/18 02:00:14;;;;;;;6.82;2.67;;;12.70;99.90;;;;;;4879017;29;20141;-78
2021/09/18 02:02:40;;;;;;;8.27;2.83;;;12.80;99.90;;;;;;4891695;29;20131;-78
2021/09/18 02:05:07;;;;;;;5.45;2.60;;;12.80;99.90;;;;;;4893772;29;20123;-78
2021/09/18 02:07:33;;;;;;;5.15;2.55;;;12.80;99.90;;;;;;4910215;29;20047;-79
2021/09/18 02:09:59;;;;;;;5.50;2.55;;;12.90;99.90;;;;;;4881001;29;20386;-77
2021/09/18 02:12:25;;;;;;;5.05;2.40;;;13.00;99.90;;;;;;4878590;29;20206;-77
2021/09/18 02:14:51;;;;;;;4.82;3.00;;;13.00;99.90;;;;;;4896033;29;20155;-78
2021/09/18 02:17:16;;;;;;;5.45;2.50;;;13.00;99.90;;;;;;4891773;29;20440;-77
2021/09/18 02:19:42;;;;;;;4.78;2.45;;;13.10;99.90;;;;;;4892075;29;20485;-76
2021/09/18 02:22:08;;;;;;;5.32;2.35;;;13.20;99.90;;;;;;4893298;29;20075;-77
2021/09/18 02:24:34;;;;;;;7.32;2.40;;;13.20;99.90;;;;;;4911810;29;20128;-80
2021/09/18 02:26:59;;;;;;;5.30;2.63;;;13.20;99.90;;;;;;4891628;29;20151;-80
2021/09/18 02:29:25;;;;;;;9.73;2.45;;;13.30;99.90;;;;;;4894728;29;20143;-77
2021/09/18 02:31:51;;;;;;;7.65;2.70;;;13.30;99.90;;;;;;4897181;29;20050;-80
2021/09/18 02:34:16;;;;;;;8.40;3.08;;;13.30;99.90;;;;;;4893741;29;20054;-79
2021/09/18 02:36:42;;;;;;;6.25;2.60;;;13.40;99.90;;;;;;4894262;29;20527;-78
2021/09/18 02:39:08;;;;;;;6.20;2.70;;;13.40;99.90;;;;;;4891899;29;20032;-80
2021/09/18 02:41:34;;;;;;;6.25;2.70;;;13.40;99.90;;;;;;4896808;29;20056;-78
2021/09/18 02:43:59;;;;;;;5.95;2.50;;;13.40;99.90;;;;;;4889938;29;20062;-76
2021/09/18 02:46:25;;;;;;;7.80;2.55;;;13.40;99.90;;;;;;4894809;29;20143;-77
2021/09/18 02:48:51;;;;;;;5.25;2.63;;;13.40;99.90;;;;;;4892369;29;20093;-79
2021/09/18 02:51:18;;;;;;;3.83;2.60;;;13.40;99.90;;;;;;4886590;29;20648;-77
2021/09/18 02:53:43;;;;;;;6.47;2.70;;;13.50;99.90;;;;;;4877586;29;21932;-77
2021/09/18 02:56:09;;;;;;;4.88;2.53;;;13.40;99.90;;;;;;4892136;29;20246;-78
2021/09/18 02:58:35;;;;;;;4.53;2.60;;;13.30;99.90;;;;;;4890543;29;20459;-79
2021/09/18 03:01:01;;;;;;;6.72;2.58;;;13.30;99.90;;;;;;4888810;29;20052;-80
2021/09/18 03:03:27;;;;;;;7.88;2.97;;;13.20;99.90;;;;;;4887971;29;20151;-79
2021/09/18 03:05:54;;;;;;;3.70;2.60;;;13.20;99.90;;;;;;4892887;29;20035;-80
2021/09/18 03:08:19;;;;;;;6.95;2.70;;;13.20;99.90;;;;;;4879993;29;20044;-80
2021/09/18 03:10:45;;;;;;;5.95;2.58;;;13.20;99.90;;;;;;4894547;29;20075;-77
2021/09/18 03:13:11;;;;;;;6.22;2.80;;;13.20;99.90;;;;;;4894208;29;20495;-77
2021/09/18 03:15:37;;;;;;;4.75;2.53;;;13.20;99.90;;;;;;4893807;29;20067;-81
2021/09/18 03:18:02;;;;;;;4.35;2.30;;;13.20;99.90;;;;;;4898368;29;20075;-78
2021/09/18 03:20:28;;;;;;;5.68;2.70;;;13.20;99.90;;;;;;4897345;29;20055;-78
2021/09/18 03:22:54;;;;;;;5.93;2.60;;;13.20;99.90;;;;;;4882415;29;20040;-79
2021/09/18 03:25:19;;;;;;;5.53;2.40;;;13.20;99.90;;;;;;4884838;29;20463;-77
2021/09/18 03:27:45;;;;;;;6.55;2.50;;;13.20;99.90;;;;;;4914837;29;20108;-78
2021/09/18 03:30:11;;;;;;;5.07;2.97;;;13.20;99.90;;;;;;4915318;29;20064;-78
2021/09/18 03:32:37;;;;;;;8.10;2.20;;;13.20;99.90;;;;;;4883468;29;20040;-78
2021/09/18 03:35:03;;;;;;;4.85;2.42;;;13.10;99.90;;;;;;4896941;29;20119;-77
2021/09/18 03:37:29;;;;;;;6.25;2.53;;;13.10;99.90;;;;;;4877798;29;20613;-79
2021/09/18 03:39:56;;;;;;;5.20;2.50;;;13.20;99.90;;;;;;4899480;29;20044;-77
2021/09/18 03:42:22;;;;;;;8.10;2.35;;;13.10;99.90;;;;;;4899386;29;20346;-79
2021/09/18 03:44:48;;;;;;;5.75;2.15;;;13.10;99.90;;;;;;4898965;29;20071;-81
2021/09/18 03:47:14;;;;;;;4.32;2.30;;;13.00;99.90;;;;;;4893653;29;20084;-78
2021/09/18 03:49:40;;;;;;;3.97;2.20;;;13.10;99.90;;;;;;4881965;29;20074;-80
2021/09/18 03:52:06;;;;;;;7.35;2.45;;;13.00;99.90;;;;;;4892993;29;20173;-79
2021/09/18 03:54:31;;;;;;;7.88;2.40;;;13.00;99.90;;;;;;4882366;29;20135;-78
2021/09/18 03:56:59;;;;;;;4.13;2.42;;;13.00;99.90;;;;;;4878423;29;20047;-78
2021/09/18 03:59:25;;;;;;;6.88;2.38;;;13.00;99.90;;;;;;4894727;29;20040;-79
2021/09/18 04:01:50;;;;;;;7.93;2.20;;;12.90;99.90;;;;;;4879990;29;20087;-81
2021/09/18 04:04:16;;;;;;;3.55;2.30;;;12.90;99.90;;;;;;4911878;29;20052;-77
2021/09/18 04:06:42;;;;;;;5.90;2.25;;;12.80;99.90;;;;;;4895930;29;20135;-78
2021/09/18 04:09:07;;;;;;;3.67;2.17;;;12.80;99.90;;;;;;4894688;29;20048;-79
2021/09/18 04:11:33;;;;;;;4.60;1.83;;;12.70;99.90;;;;;;4898744;29;20150;-79
2021/09/18 04:13:58;;;;;;;3.63;1.70;;;12.70;99.90;;;;;;4880262;29;20048;-80
2021/09/18 04:16:24;;;;;;;5.03;1.77;;;12.60;99.90;;;;;;4898251;29;20079;-78
2021/09/18 04:18:50;;;;;;;4.40;2.10;;;12.60;99.90;;;;;;4878720;29;20040;-79
2021/09/18 04:21:16;;;;;;;4.50;1.80;;;12.60;99.90;;;;;;4894746;29;20485;-78
2021/09/18 04:23:42;;;;;;;5.20;1.88;;;12.60;99.90;;;;;;4885227;29;20407;-80
2021/09/18 04:26:08;;;;;;;4.88;2.00;;;12.60;99.90;;;;;;4896887;29;20044;-78
2021/09/18 04:28:33;;;;;;;3.10;1.80;;;12.50;99.90;;;;;;4894072;29;20408;-78
2021/09/18 04:30:59;;;;;;;4.90;1.90;;;12.40;99.90;;;;;;4893804;29;20049;-79
2021/09/18 04:33:24;;;;;;;5.00;1.75;;;12.30;99.90;;;;;;4889968;29;20040;-78
2021/09/18 04:35:50;;;;;;;3.65;1.90;;;12.30;99.90;;;;;;4893977;29;20685;-80
2021/09/18 04:38:16;;;;;;;4.63;1.90;;;12.20;99.90;;;;;;4896740;29;20028;-79
2021/09/18 04:40:42;;;;;;;3.05;1.70;;;12.10;99.90;;;;;;4893312;29;20087;-77
2021/09/18 04:43:07;;;;;;;3.60;2.00;;;12.10;99.90;;;;;;4911610;29;20036;-76
2021/09/18 04:45:33;;;;;;;3.67;1.90;;;12.30;99.90;;;;;;4881288;29;20051;-76
2021/09/18 04:47:59;;;;;;;5.07;2.03;;;12.20;99.90;;;;;;4893169;29;20067;-79
2021/09/18 04:50:24;;;;;;;9.80;2.30;;;12.30;99.90;;;;;;4888464;29;20044;-79
2021/09/18 04:52:50;;;;;;;5.20;2.20;;;12.40;99.90;;;;;;4874170;29;20079;-77
2021/09/18 04:55:15;;;;;;;6.65;2.40;;;12.30;99.90;;;;;;4894867;29;20044;-76
2021/09/18 04:57:42;;;;;;;5.43;2.40;;;12.50;99.90;;;;;;4897502;29;20040;-76
2021/09/18 05:00:09;;;;;;;4.40;2.35;;;12.50;99.90;;;;;;4893265;29;20063;-77
2021/09/18 05:02:34;;;;;;;4.45;2.05;;;12.50;99.90;;;;;;4912777;29;20086;-78
2021/09/18 05:05:00;;;;;;;3.97;2.00;;;12.60;99.90;;;;;;4898418;29;20824;-77
2021/09/18 05:07:26;;;;;;;6.22;2.20;;;12.60;99.90;;;;;;4895568;29;20700;-76
2021/09/18 05:09:55;;;;;;;5.63;1.98;;;12.70;99.90;;;;;;4875627;29;20048;-80
2021/09/18 05:12:21;;;;;;;6.03;2.17;;;12.70;99.90;;;;;;4897381;29;20133;-76
2021/09/18 05:14:46;;;;;;;6.28;2.08;;;12.70;99.90;;;;;;4894719;29;20091;-78
2021/09/18 05:17:12;;;;;;;6.25;2.40;;;12.80;99.90;;;;;;4913311;29;20145;-76
2021/09/18 05:19:38;;;;;;;4.03;1.95;;;12.80;99.90;;;;;;4895657;29;20038;-76
2021/09/18 05:22:03;;;;;;;6.28;1.90;;;12.80;99.90;;;;;;4898102;29;20395;-75
2021/09/18 05:24:29;;;;;;;4.15;2.00;;;13.00;99.90;;;;;;4899132;29;20048;-76
2021/09/18 05:26:55;;;;;;;2.88;2.10;;;13.00;99.90;;;;;;4893023;29;20056;-77
2021/09/18 05:29:21;;;;;;;2.58;2.05;;;13.10;99.90;;;;;;4892754;29;20044;-77
2021/09/18 05:31:47;;;;;;;8.55;2.15;;;13.00;99.90;;;;;;4896244;29;20433;-80
2021/09/18 05:34:12;;;;;;;4.05;2.10;;;13.10;99.90;;;;;;4894149;29;20048;-76
2021/09/18 05:36:38;;;;;;;3.70;2.17;;;13.10;99.90;;;;;;4894432;29;20044;-77
2021/09/18 05:39:04;;;;;;;6.25;2.38;;;13.10;99.90;;;;;;4876726;29;20198;-78
2021/09/18 05:41:29;;;;;;;7.38;2.33;;;13.20;99.90;;;;;;4900053;29;20050;-79
2021/09/18 05:43:55;;;;;;;4.80;2.47;;;13.20;99.90;;;;;;4895457;29;20054;-78
2021/09/18 05:46:21;;;;;;;7.10;2.40;;;13.20;99.90;;;;;;4900269;29;20161;-78
2021/09/18 05:48:46;;;;;;;6.55;2.70;;;13.20;99.90;;;;;;4894660;29;20051;-77
2021/09/18 05:51:15;;;;;;;6.07;2.60;;;13.20;99.90;;;;;;4895231;29;20495;-80
2021/09/18 05:53:41;;;;;;;7.60;2.20;;;13.20;99.90;;;;;;4881009;29;20537;-81
2021/09/18 05:56:06;;;;;;;3.38;2.08;;;13.30;99.90;;;;;;4875420;29;20056;-79
2021/09/18 05:58:32;;;;;;;5.75;2.10;;;13.40;99.90;;;;;;4888451;29;20036;-78
2021/09/18 06:00:58;;;;;;;7.18;2.53;;;13.30;99.90;;;;;;4877411;29;20048;-79
2021/09/18 06:03:23;;;;;;;4.20;2.30;;;13.30;99.90;;;;;;4891647;29;20044;-79
2021/09/18 06:05:49;;;;;;;4.22;2.13;;;13.30;99.90;;;;;;4892041;29;20457;-79
2021/09/18 06:08:15;;;;;;;5.90;2.28;;;13.30;99.90;;;;;;4875269;29;20092;-77
2021/09/18 06:10:41;;;;;;;5.57;2.03;;;13.30;99.90;;;;;;4890069;29;20056;-79
2021/09/18 06:13:06;;;;;;;2.75;1.92;;;13.30;99.90;;;;;;4875493;29;20406;-78
2021/09/18 06:15:32;;;;;;;7.05;2.03;;;13.30;99.90;;;;;;4874513;29;20120;-78
2021/09/18 06:17:58;;;;;;;6.35;1.95;;;13.20;99.90;;;;;;4890423;29;20048;-80
2021/09/18 06:20:24;;;;;;;8.18;2.42;;;13.20;99.90;;;;;;4890772;29;20044;-77
2021/09/18 06:22:49;;;;;;;5.10;2.15;;;13.20;99.90;;;;;;4889305;29;20061;-75
2021/09/18 06:25:15;;;;;;;5.45;1.90;;;13.20;99.90;;;;;;4886793;29;20048;-74
2021/09/18 06:27:42;;;;;;;4.50;2.10;;;13.30;99.90;;;;;;4871365;29;20053;-76
2021/09/18 06:30:10;;;;;;;6.40;1.95;;;13.30;99.90;;;;;;4885770;29;20505;-76
2021/09/18 06:32:35;;;;;;;4.00;2.10;;;13.30;99.90;;;;;;4887316;29;20083;-77
2021/09/18 06:35:02;;;;;;;3.03;1.80;;;13.40;99.90;;;;;;4888101;29;20044;-76
2021/09/18 06:37:27;;;;;;;7.88;2.22;;;13.40;99.90;;;;;;4888670;29;20064;-75
2021/09/18 06:39:53;;;;;;;4.05;1.77;;;13.40;99.90;;;;;;4888794;29;20465;-80
2021/09/18 06:42:19;;;;;;;6.63;1.95;;;13.50;99.90;;;;;;4886161;29;20056;-78
2021/09/18 06:44:45;;;;;;;9.15;2.08;;;13.50;99.90;;;;;;4888795;29;20100;-78
2021/09/18 06:47:11;;;;;;;5.25;1.88;;;13.60;99.90;;;;;;4889213;29;20147;-79
2021/09/18 06:49:37;;;;;;;4.60;2.00;;;13.60;99.90;;;;;;4885982;29;20045;-76
2021/09/18 06:52:05;;;;;;;7.82;1.85;;;13.60;99.90;;;;;;4902600;29;20044;-78
2021/09/18 06:54:30;;;;;;;4.88;1.90;;;13.70;99.90;;;;;;4887718;29;20329;-75
2021/09/18 06:56:56;;;;;;;5.20;1.80;;;13.70;99.90;;;;;;4893364;29;20108;-78
2021/09/18 06:59:22;;;;;;;5.72;1.83;;;13.80;99.90;;;;;;4886104;29;20040;-80
2021/09/18 07:01:50;;;;;;;2.83;1.60;;;13.80;99.90;;;;;;4887419;29;20059;-80
2021/09/18 07:04:16;;;;;;;8.68;1.98;;;13.80;99.90;;;;;;4875296;29;20082;-77
2021/09/18 07:06:42;;;;;;;6.25;1.80;;;13.80;99.90;;;;;;4887150;29;20484;-79
2021/09/18 07:09:08;;;;;;;4.70;1.90;;;13.80;99.90;;;;;;4872252;29;20147;-79
2021/09/18 07:11:33;;;;;;;6.00;1.75;;;13.90;99.90;;;;;;4905262;29;20132;-81
2021/09/18 07:13:59;;;;;;;5.70;1.70;;;13.90;99.90;;;;;;4875533;29;20048;-78
2021/09/18 07:16:25;;;;;;;2.92;1.35;;;13.90;99.90;;;;;;4891945;29;20045;-79
2021/09/18 07:18:50;;;;;;;6.13;1.42;;;13.90;99.90;;;;;;4890835;29;20528;-77
2021/09/18 07:21:16;;;;;;;3.08;1.40;;;14.00;99.90;;;;;;4892616;29;20052;-78
2021/09/18 07:23:41;;;;;;;6.88;1.40;;;13.90;99.90;;;;;;4890972;29;20074;-79
2021/09/18 07:26:12;;;;;;;3.47;1.60;;;14.00;99.90;;;;;;4906102;29;20111;-79
2021/09/18 07:28:38;;;;;;;4.47;1.73;;;14.00;99.90;;;;;;4891248;29;20127;-79
2021/09/18 07:31:04;;;;;;;5.35;1.63;;;14.10;99.90;;;;;;4896313;29;20046;-83
2021/09/18 07:33:30;;;;;;;7.68;1.83;;;14.10;99.90;;;;;;4893638;29;20045;-79
2021/09/18 07:35:55;;;;;;;5.40;1.48;;;14.00;99.90;;;;;;4873391;29;20049;-80
2021/09/18 07:38:21;;;;;;;5.13;1.55;;;14.10;99.90;;;;;;4879075;29;20457;-80
2021/09/18 07:40:47;;;;;;;3.92;1.58;;;14.30;99.90;;;;;;4890115;29;20131;-80
2021/09/18 07:43:12;;;;;;;3.20;1.48;;;14.30;99.90;;;;;;4891949;29;20191;-79
2021/09/18 07:45:38;;;;;;;6.50;1.60;;;14.30;99.90;;;;;;4914341;29;20040;-77
2021/09/18 07:48:04;;;;;;;3.63;1.50;;;14.40;99.90;;;;;;4896724;29;20062;-80
2021/09/18 07:50:30;;;;;;;2.42;1.25;;;14.40;99.90;;;;;;4895007;29;20075;-78
2021/09/18 07:52:55;;;;;;;6.15;1.55;;;14.50;99.90;;;;;;4881292;29;20377;-82
2021/09/18 07:55:21;;;;;;;4.55;1.50;;;14.50;99.90;;;;;;4890845;29;20493;-81
2021/09/18 07:57:47;;;;;;;4.32;1.20;;;14.50;99.90;;;;;;4893348;29;20631;-81
2021/09/18 08:00:13;;;;;;;3.63;1.33;;;14.60;99.90;;;;;;4888874;29;20103;-77
2021/09/18 08:02:38;;;;;;;6.70;1.27;;;14.70;99.90;;;;;;4877272;29;20189;-79
2021/09/18 08:05:04;;;;;;;4.35;1.27;;;14.70;99.90;;;;;;4885684;29;20143;-79
2021/09/18 08:07:30;;;;;;;5.05;1.10;;;14.70;99.90;;;;;;4894119;29;20432;-79
2021/09/18 08:09:56;;;;;;;4.55;1.10;;;14.80;99.90;;;;;;4877661;29;20094;-83
2021/09/18 08:12:23;;;;;;;6.43;1.20;;;14.80;99.90;;;;;;4879748;29;20087;-78
2021/09/18 08:14:50;;;;;;;1.23;0.90;;;14.90;99.90;;;;;;4879136;29;20052;-78
2021/09/18 08:17:16;;;;;;;3.80;0.95;;;14.90;99.90;;;;;;4894878;29;20091;-76
2021/09/18 08:19:41;;;;;;;2.00;0.68;;;15.30;99.90;;;;;;4894352;29;20067;-79
2021/09/18 08:22:07;;;;;;;3.97;1.00;;;15.60;99.90;;;;;;4908794;29;20131;-77
2021/09/18 08:24:33;;;;;;;6.13;1.17;;;15.60;99.90;;;;;;4893915;29;20657;-76
2021/09/18 08:26:59;;;;;;;2.50;0.82;;;15.70;99.90;;;;;;4911868;29;20479;-76
2021/09/18 08:29:25;;;;;;;4.47;0.90;;;15.80;99.90;;;;;;4892333;29;20247;-77
2021/09/18 08:31:51;;;;;;;2.25;0.93;;;16.00;99.90;;;;;;4893162;29;20106;-76
2021/09/18 08:34:16;;;;;;;5.55;0.98;;;16.00;99.90;;;;;;4893749;29;20092;-75
2021/09/18 08:36:42;;;;;;;3.53;1.08;;;16.00;99.90;;;;;;4898003;29;20813;-76
2021/09/18 08:39:08;;;;;;;4.70;1.13;;;16.20;99.90;;;;;;4910844;29;20071;-75
2021/09/18 08:41:34;;;;;;;2.80;0.80;;;16.20;99.90;;;;;;4892601;29;20062;-75
2021/09/18 08:44:00;;;;;;;4.07;0.88;;;16.20;99.90;;;;;;4876201;29;20171;-75
2021/09/18 08:46:28;;;;;;;4.70;0.90;;;16.40;99.90;;;;;;4896856;29;20158;-76
2021/09/18 08:48:54;;;;;;;4.22;1.20;;;16.50;99.90;;;;;;4891961;29;20052;-76
2021/09/18 08:51:21;;;;;;;4.57;1.20;;;16.60;99.90;;;;;;4876259;29;20052;-75
2021/09/18 08:53:46;;;;;;;3.60;1.00;;;16.60;99.90;;;;;;4883047;29;20056;-75
2021/09/18 08:56:16;;;;;;;1.73;0.82;;;16.90;99.90;;;;;;4891329;29;20053;-80
2021/09/18 08:58:42;;;;;;;12.98;1.40;;;17.10;99.90;;;;;;4890795;29;20076;-78
2021/09/18 09:01:07;;;;;;;6.47;1.10;;;17.10;99.90;;;;;;4914588;29;20036;-77
2021/09/18 09:03:36;;;;;;;3.55;0.85;;;17.20;99.90;;;;;;4893207;29;20048;-76
2021/09/18 09:06:09;;;;;;;2.53;0.90;;;17.30;99.90;;;;;;4892852;29;20052;-80
2021/09/18 09:08:37;;;;;;;7.95;1.25;;;17.40;99.90;;;;;;4876034;29;20060;-77
2021/09/18 09:11:21;;;;;;;9.05;0.90;;;17.40;99.90;;;;;;4891557;29;20056;-77
2021/09/18 09:14:08;;;;;;;4.15;1.00;;;17.50;99.90;;;;;;4879870;29;20084;-76
2021/09/18 09:16:35;;;;;;;6.60;1.10;;;17.50;99.90;;;;;;4893485;29;20051;-78
2021/09/18 09:19:18;;;;;;;4.13;0.82;;;17.50;99.90;;;;;;4892627;29;20063;-77
2021/09/18 09:21:49;;;;;;;3.28;1.08;;;17.50;99.90;;;;;;4896103;29;20516;-77
2021/09/18 09:24:18;;;;;;;4.80;1.00;;;17.70;99.90;;;;;;4894633;29;20056;-78
2021/09/18 09:27:15;;;;;;;4.35;0.90;;;17.70;99.90;;;;;;4892962;29;20036;-76
2021/09/18 09:29:45;;;;;;;3.75;0.75;;;17.90;99.90;;;;;;4894385;29;20338;-75
2021/09/18 09:32:32;;;;;;;3.13;1.02;;;17.90;99.90;;;;;;4894260;29;20055;-78
2021/09/18 09:35:00;;;;;;;2.15;0.80;;;18.00;99.90;;;;;;4883106;29;20040;-78
2021/09/18 09:37:26;;;;;;;4.47;1.02;;;18.10;99.90;;;;;;4893564;29;20060;-77
2021/09/18 09:40:00;;;;;;;3.70;0.88;;;18.10;99.90;;;;;;4878147;29;20059;-79
2021/09/18 09:42:34;;;;;;;1.70;0.68;;;18.20;99.90;;;;;;4892059;29;20052;-75
2021/09/18 09:45:15;;;;;;;3.85;0.93;;;18.20;99.90;;;;;;4893606;29;20048;-77
2021/09/18 09:47:42;;;;;;;4.88;0.90;;;18.20;99.90;;;;;;4887761;29;20131;-79
2021/09/18 09:50:09;;;;;;;3.03;0.90;;;18.10;99.90;;;;;;4908863;29;20484;-78
2021/09/18 09:52:36;;;;;;;5.63;1.40;;;18.40;99.90;;;;;;4889915;29;20059;-78
2021/09/18 09:55:09;;;;;;;3.83;0.80;;;18.50;99.90;;;;;;4881879;29;20054;-80
2021/09/18 09:57:35;;;;;;;3.10;1.00;;;18.50;99.90;;;;;;4891269;29;20048;-79
2021/09/18 10:00:08;;;;;;;3.17;0.93;;;18.70;99.90;;;;;;4892206;29;20134;-76
2021/09/18 10:02:39;;;;;;;2.90;0.95;;;18.90;99.90;;;;;;4878897;29;20052;-77
2021/09/18 10:05:07;;;;;;;4.43;0.95;;;18.90;99.90;;;;;;4891097;29;20119;-76
2021/09/18 10:07:35;;;;;;;3.00;0.90;;;19.10;99.90;;;;;;4890122;29;20055;-75
2021/09/18 10:10:02;;;;;;;8.10;1.20;;;19.00;99.90;;;;;;4890335;29;20056;-79
2021/09/18 10:12:29;;;;;;;3.20;1.00;;;19.20;99.90;;;;;;4878519;29;20043;-78
2021/09/18 10:14:55;;;;;;;4.90;1.10;;;19.30;99.90;;;;;;4874940;29;20203;-82
2021/09/18 10:17:22;;;;;;;3.80;1.13;;;19.40;99.90;;;;;;4906957;29;20032;-77
2021/09/18 10:25:11;;;;;;;2.33;1.00;;;19.60;99.90;;;;;;4905195;29;20044;-78
2021/09/18 10:27:39;;;;;;;3.45;0.88;;;19.90;99.90;;;;;;4905530;29;20056;-81
2021/09/18 10:30:54;;;;;;;4.03;1.50;;;20.30;99.90;;;;;;4891105;29;20491;-78
2021/09/18 10:33:30;;;;;;;4.40;1.23;;;20.50;99.90;;;;;;4874429;29;20142;-78
2021/09/18 10:36:05;;;;;;;5.45;1.42;;;20.80;99.90;;;;;;4892977;29;20115;-78
2021/09/18 10:38:34;;;;;;;4.05;1.23;;;20.80;99.90;;;;;;4891892;29;20063;-76
2021/09/18 10:41:04;;;;;;;2.70;1.38;;;20.90;99.90;;;;;;4890812;29;20088;-77
2021/09/18 10:43:36;;;;;;;3.63;1.30;;;21.00;99.90;;;;;;4891102;29;20044;-76
2021/09/18 10:46:07;;;;;;;2.10;1.48;;;21.00;99.90;;;;;;4874208;29;20080;-77
2021/09/18 10:48:45;;;;;;;3.25;1.15;;;21.30;99.90;;;;;;4875183;29;20043;-77
2021/09/18 10:51:33;;;;;;;3.25;1.38;;;21.30;99.90;;;;;;4876462;29;20196;-76
2021/09/18 10:54:04;;;;;;;5.25;1.63;;;21.40;99.90;;;;;;4889248;29;20472;-77
2021/09/18 10:56:55;;;;;;;4.68;1.30;;;21.50;99.90;;;;;;4910504;29;20040;-77
2021/09/18 10:59:59;;;;;;;5.63;1.70;;;21.70;99.90;;;;;;4885902;29;20730;-77
2021/09/18 11:02:36;;;;;;;3.25;1.17;;;21.80;99.90;;;;;;4870723;29;20044;-77
2021/09/18 11:05:28;;;;;;;4.05;1.42;;;21.80;99.90;;;;;;4888269;29;20461;-77
2021/09/18 11:07:58;;;;;;;4.45;1.67;;;21.90;99.90;;;;;;4795275;29;20118;-78
2021/09/18 11:10:23;;;;;;;3.47;1.60;;;21.70;99.90;;;;;;4798545;29;20182;-78
2021/09/18 11:13:07;;;;;;;3.80;1.48;;;21.40;99.90;;;;;;4813209;29;20138;-78
2021/09/18 11:15:43;;;;;;;3.78;1.48;;;21.50;99.90;;;;;;4816012;29;20038;-77
2021/09/18 11:18:13;;;;;;;2.58;1.33;;;21.90;99.90;;;;;;4796975;29;20065;-77
2021/09/18 11:20:39;;;;;;;2.72;1.30;;;22.10;99.90;;;;;;4782825;29;20086;-77
2021/09/18 11:23:05;;;;;;;3.20;1.00;;;21.80;99.90;;;;;;4796014;29;20395;-78
2021/09/18 11:25:33;;;;;;;2.97;0.93;;;21.80;99.90;;;;;;4804772;29;20042;-77
2021/09/18 11:28:02;;;;;;;2.92;1.13;;;21.90;99.90;;;;;;4803260;29;20518;-80
2021/09/18 11:30:52;;;;;;;2.33;1.35;;;22.20;99.90;;;;;;4801558;29;20066;-80
2021/09/18 11:33:22;;;;;;;2.67;1.23;;;22.40;99.90;;;;;;4813357;29;20050;-80
2021/09/18 11:35:55;;;;;;;3.35;1.30;;;22.50;99.90;;;;;;4807143;29;20094;-78
2021/09/18 11:38:30;;;;;;;3.67;1.20;;;22.80;99.90;;;;;;4804922;29;20056;-78
2021/09/18 11:41:14;;;;;;;3.22;1.38;;;22.90;99.90;;;;;;4804795;29;20061;-78
2021/09/18 11:43:41;;;;;;;2.90;1.10;;;23.00;99.90;;;;;;4818834;29;20050;-77
2021/09/18 11:46:09;;;;;;;2.40;1.27;;;23.10;99.90;;;;;;4895563;29;20532;-77
2021/09/18 11:48:35;;;;;;;4.15;1.23;;;23.20;99.90;;;;;;4899587;29;20059;-79
2021/09/18 11:51:06;;;;;;;4.22;1.60;;;23.00;99.90;;;;;;4895053;29;20044;-77
2021/09/18 11:53:35;;;;;;;;;;;23.10;99.90;;;;;;4889345;29;20052;-77
2021/09/18 11:56:02;;;;;;;2.65;1.70;;;23.20;99.90;;;;;;4896145;29;19927;-78
2021/09/18 11:58:31;;;;;;;3.17;1.45;;;23.20;99.90;;;;;;4884290;29;20067;-77
2021/09/18 12:01:02;;;;;;;2.72;1.00;;;23.40;99.90;;;;;;4896455;29;20095;-78
2021/09/18 12:03:30;;;;;;;3.63;1.35;;;23.80;99.90;;;;;;4917709;29;20090;-78
2021/09/18 12:05:59;;;;;;;4.35;1.38;;;23.50;99.90;;;;;;4881995;29;20171;-79
2021/09/18 12:08:27;;;;;;;3.92;1.23;;;23.70;99.90;;;;;;4900118;29;20048;-78
2021/09/18 12:10:55;;;;;;;2.78;0.90;;;24.00;99.90;;;;;;4897511;29;20127;-78
2021/09/18 12:13:23;;;;;;;4.45;1.48;;;23.80;99.90;;;;;;4884205;29;20115;-78
2021/09/18 12:15:51;;;;;;;2.83;1.40;;;23.60;99.90;;;;;;4894142;29;20126;-80
2021/09/18 12:18:31;;;;;;;5.72;1.40;;;23.40;99.90;;;;;;4917320;29;20102;-79
2021/09/18 12:21:03;;;;;;;2.88;1.23;;;23.40;99.90;;;;;;4897068;29;20044;-78
2021/09/18 12:23:31;;;;;;;2.45;1.30;;;23.60;99.90;;;;;;4897241;29;20040;-78
2021/09/18 12:26:00;;;;;;;3.05;1.30;;;24.00;99.90;;;;;;4897139;29;20477;-79
2021/09/18 12:28:27;;;;;;;1.88;1.30;;;24.30;99.90;;;;;;4898208;29;20056;-78
2021/09/18 12:30:53;;;;;;;4.90;1.40;;;24.20;99.90;;;;;;4896843;29;20408;-79
2021/09/18 12:33:28;;;;;;;2.60;1.50;;;23.70;99.90;;;;;;4900026;29;20111;-78
2021/09/18 12:36:24;;;;;;;4.00;1.80;;;23.10;99.90;;;;;;4897951;29;20083;-78
2021/09/18 12:38:56;;;;;;;2.60;1.50;;;22.90;99.90;;;;;;4898205;29;20062;-78
2021/09/18 12:41:29;;;;;;;2.45;1.80;;;22.80;99.90;;;;;;4898582;29;20048;-78
2021/09/18 12:44:03;;;;;;;3.73;2.07;;;23.30;99.90;;;;;;4891010;29;20119;-80
2021/09/18 12:46:37;;;;;;;5.05;1.70;;;23.60;99.10;;;;;;4895660;29;20059;-78
2021/09/18 12:49:04;;;;;;;2.22;1.80;;;24.00;99.90;;;;;;4892953;29;20040;-78
2021/09/18 12:51:32;;;;;;;4.53;2.00;;;24.20;99.70;;;;;;4904110;29;20504;-78
2021/09/18 12:53:59;;;;;;;2.58;1.77;;;24.50;99.80;;;;;;4897212;29;20142;-79
2021/09/18 12:56:27;;;;;;;2.45;1.70;;;24.50;99.20;;;;;;4892744;29;20521;-78